Time;durP1;ratioP1;P1;durP2;ratioP2;P2;SDS_P1;SDS_P2;PMS_P1;PMS_P2;Temp;Humidity;BMP_temperature;BMP_pressure;BME280_temperature;BME280_humidity;BME280_pressure;Samples;Min_cycle;Max_cycle;Signal;HPM_P1;HPM_P2
2020/12/05 06:02:40;;;;;;;;;;;;;;;;;;5082202;27;20372;-57
2020/12/05 06:05:12;;;;;;;20.02;2.50;;;;;;;;;;5082602;28;19912;-50
2020/12/05 06:07:42;;;;;;;32.03;4.43;;;;;;;;;;5085163;28;20028;-51
2020/12/05 06:10:09;;;;;;;21.92;2.53;;;;;;;;;;5084013;28;20530;-54
2020/12/05 06:12:35;;;;;;;16.75;1.88;;;;;;;;;;5083643;28;20067;-53
2020/12/05 06:15:02;;;;;;;8.57;1.95;;;;;;;;;;5085734;28;20558;-53
2020/12/05 06:17:28;;;;;;;15.55;1.45;;;;;;;;;;5084419;28;20020;-53
2020/12/05 06:19:56;;;;;;;14.38;1.48;;;;;;;;;;5085755;28;20079;-56
2020/12/05 06:22:24;;;;;;;13.25;1.58;;;;;;;;;;5084096;28;20040;-54
2020/12/05 06:24:57;;;;;;;18.13;2.83;;;;;;;;;;5083324;28;20462;-52
2020/12/05 06:27:24;;;;;;;22.13;1.85;;;;;;;;;;5080503;28;20489;-56
2020/12/05 06:29:50;;;;;;;18.00;1.75;;;;;;;;;;5069253;28;20029;-56
2020/12/05 06:32:35;;;;;;;21.15;2.17;;;;;;;;;;5069948;28;20079;-53
2020/12/05 06:35:01;;;;;;;11.48;1.73;;;;;;;;;;5072172;28;20094;-55
2020/12/05 06:37:34;;;;;;;18.30;2.85;;;;;;;;;;5071632;28;20044;-57
2020/12/05 06:40:01;;;;;;;21.58;2.72;;;;;;;;;;5071187;28;20028;-56
2020/12/05 06:42:27;;;;;;;20.45;4.82;;;;;;;;;;5072025;28;20034;-56
2020/12/05 06:44:54;;;;;;;12.88;1.52;;;;;;;;;;5069038;28;20032;-56
2020/12/05 06:47:25;;;;;;;18.15;1.63;;;;;;;;;;5079274;28;20066;-58
2020/12/05 06:49:52;;;;;;;15.45;2.78;;;;;;;;;;5071091;28;20035;-56
2020/12/05 06:52:24;;;;;;;14.73;2.42;;;;;;;;;;5071249;28;20394;-56
2020/12/05 06:54:53;;;;;;;26.15;2.47;;;;;;;;;;5071413;28;20469;-55
2020/12/05 06:57:20;;;;;;;17.05;2.00;;;;;;;;;;5071705;28;20507;-55
2020/12/05 06:59:46;;;;;;;19.52;2.35;;;;;;;;;;5067151;28;20078;-53
2020/12/05 07:02:27;;;;;;;26.42;3.00;;;;;;;;;;5081056;28;20048;-55
2020/12/05 07:05:12;;;;;;;22.70;2.67;;;;;;;;;;5071783;28;20044;-52
2020/12/05 07:07:38;;;;;;;22.75;2.70;;;;;;;;;;5071848;28;20039;-56
2020/12/05 07:10:04;;;;;;;27.25;2.58;;;;;;;;;;5069842;28;20017;-54
2020/12/05 07:12:37;;;;;;;24.38;3.35;;;;;;;;;;5069151;28;20116;-56
2020/12/05 07:15:22;;;;;;;16.15;2.50;;;;;;;;;;5069219;28;20024;-61
2020/12/05 07:17:49;;;;;;;17.90;2.70;;;;;;;;;;5065400;28;20075;-63
2020/12/05 07:20:15;;;;;;;19.45;2.35;;;;;;;;;;5072448;28;20016;-63
2020/12/05 07:22:43;;;;;;;16.63;2.53;;;;;;;;;;5070402;28;20032;-62
2020/12/05 07:25:10;;;;;;;18.95;2.88;;;;;;;;;;5071547;28;20035;-65
2020/12/05 07:27:36;;;;;;;16.70;2.45;;;;;;;;;;5069582;28;20036;-62
2020/12/05 07:30:03;;;;;;;15.38;2.25;;;;;;;;;;5068391;28;20397;-62
2020/12/05 07:32:31;;;;;;;24.77;3.25;;;;;;;;;;5071078;28;20028;-62
2020/12/05 07:34:58;;;;;;;12.02;2.28;;;;;;;;;;5071443;28;20036;-64
2020/12/05 07:37:25;;;;;;;15.50;2.03;;;;;;;;;;5069119;28;20036;-61
2020/12/05 07:39:52;;;;;;;20.92;2.15;;;;;;;;;;5069633;28;20178;-53
2020/12/05 07:42:18;;;;;;;20.45;2.42;;;;;;;;;;5069433;28;20029;-58
2020/12/05 07:44:45;;;;;;;19.58;2.85;;;;;;;;;;5069425;28;20020;-55
2020/12/05 07:47:18;;;;;;;22.45;2.72;;;;;;;;;;5073023;28;20028;-53
2020/12/05 07:49:54;;;;;;;21.33;3.17;;;;;;;;;;5071187;28;20033;-54
2020/12/05 07:52:21;;;;;;;21.13;2.80;;;;;;;;;;5068552;28;20044;-59
2020/12/05 07:54:51;;;;;;;18.00;3.00;;;;;;;;;;5068571;28;20021;-55
2020/12/05 07:57:17;;;;;;;17.10;2.40;;;;;;;;;;5069214;28;20024;-54
2020/12/05 07:59:44;;;;;;;27.60;3.67;;;;;;;;;;5069201;28;20396;-54
2020/12/05 08:02:34;;;;;;;19.80;3.00;;;;;;;;;;5071560;28;20084;-53
2020/12/05 08:05:08;;;;;;;17.48;3.85;;;;;;;;;;5028371;28;20037;-53
2020/12/05 08:07:38;;;;;;;17.88;3.20;;;;;;;;;;5027296;28;20541;-57
2020/12/05 08:10:05;;;;;;;18.15;2.95;;;;;;;;;;5026991;28;20033;-57
2020/12/05 08:12:43;;;;;;;16.95;2.63;;;;;;;;;;5027227;28;20029;-52
2020/12/05 08:15:09;;;;;;;22.30;2.70;;;;;;;;;;5028132;28;20033;-56
2020/12/05 08:17:36;;;;;;;18.02;2.50;;;;;;;;;;5027301;28;20041;-57
2020/12/05 08:20:05;;;;;;;18.25;2.47;;;;;;;;;;5027872;28;20136;-53
2020/12/05 08:22:32;;;;;;;21.40;3.50;;;;;;;;;;5027337;28;20037;-55
2020/12/05 08:24:58;;;;;;;20.73;3.05;;;;;;;;;;5027082;28;20025;-52
2020/12/05 08:27:25;;;;;;;24.70;2.67;;;;;;;;;;5028623;28;20068;-56
2020/12/05 08:29:51;;;;;;;13.80;2.63;;;;;;;;;;5029405;28;20053;-58
2020/12/05 08:32:18;;;;;;;21.85;2.67;;;;;;;;;;5029032;28;20076;-52
2020/12/05 08:34:45;;;;;;;24.88;3.30;;;;;;;;;;5028454;28;20080;-53
2020/12/05 08:37:16;;;;;;;19.25;3.25;;;;;;;;;;5029097;28;20047;-55
2020/12/05 08:39:44;;;;;;;18.67;3.00;;;;;;;;;;5028883;28;20509;-55
2020/12/05 08:42:11;;;;;;;19.25;3.10;;;;;;;;;;5047164;28;20032;-54
2020/12/05 08:44:37;;;;;;;15.10;2.28;;;;;;;;;;5068915;28;20025;-54
2020/12/05 08:47:04;;;;;;;14.57;2.47;;;;;;;;;;5070978;28;20024;-57
2020/12/05 08:49:35;;;;;;;13.50;2.15;;;;;;;;;;5069615;28;20115;-56
2020/12/05 08:52:03;;;;;;;11.20;2.15;;;;;;;;;;5066884;28;20075;-53
2020/12/05 08:54:29;;;;;;;15.13;2.50;;;;;;;;;;5067409;28;20063;-56
2020/12/05 08:57:07;;;;;;;18.30;3.17;;;;;;;;;;5068131;28;20033;-59
2020/12/05 08:59:34;;;;;;;16.17;2.33;;;;;;;;;;5069021;28;20115;-56
2020/12/05 09:02:00;;;;;;;12.63;2.17;;;;;;;;;;5069898;28;20049;-52
2020/12/05 09:04:33;;;;;;;19.85;2.35;;;;;;;;;;5068537;28;20029;-52
2020/12/05 09:07:09;;;;;;;17.70;2.90;;;;;;;;;;5067596;28;20029;-55
2020/12/05 09:09:35;;;;;;;22.88;3.97;;;;;;;;;;5067285;28;20032;-58
2020/12/05 09:12:05;;;;;;;22.30;3.60;;;;;;;;;;5062959;28;20076;-54
2020/12/05 09:14:32;;;;;;;16.00;2.60;;;;;;;;;;5058470;28;20029;-55
2020/12/05 09:16:58;;;;;;;14.57;2.15;;;;;;;;;;5069566;28;20085;-55
2020/12/05 09:19:27;;;;;;;14.95;2.50;;;;;;;;;;5067213;28;20031;-52
2020/12/05 09:21:53;;;;;;;21.13;3.00;;;;;;;;;;5067564;28;20069;-55
2020/12/05 09:24:20;;;;;;;18.15;2.83;;;;;;;;;;5067530;28;20035;-55
2020/12/05 09:26:52;;;;;;;19.08;2.70;;;;;;;;;;5067406;28;20473;-55
2020/12/05 09:29:19;;;;;;;24.70;2.95;;;;;;;;;;5068791;28;20025;-53
2020/12/05 09:32:03;;;;;;;20.58;2.83;;;;;;;;;;5069131;28;20044;-54
2020/12/05 09:34:36;;;;;;;21.92;2.50;;;;;;;;;;5065754;28;20029;-56
2020/12/05 09:37:12;;;;;;;18.40;3.42;;;;;;;;;;5065748;28;20340;-51
2020/12/05 09:39:39;;;;;;;16.67;2.65;;;;;;;;;;5062349;28;20029;-51
2020/12/05 09:42:05;;;;;;;23.25;3.17;;;;;;;;;;5065031;28;20025;-54
2020/12/05 09:44:32;;;;;;;17.50;2.95;;;;;;;;;;5068219;28;20099;-52
2020/12/05 09:46:58;;;;;;;17.42;2.97;;;;;;;;;;5067101;28;20028;-55
2020/12/05 09:49:24;;;;;;;18.50;2.45;;;;;;;;;;5057407;28;20120;-52
2020/12/05 09:51:50;;;;;;;20.45;2.88;;;;;;;;;;5058695;28;20142;-51
2020/12/05 09:54:16;;;;;;;12.38;1.80;;;;;;;;;;5065907;28;20020;-52
2020/12/05 09:56:42;;;;;;;23.80;2.28;;;;;;;;;;5050531;28;20509;-55
2020/12/05 09:59:09;;;;;;;17.38;2.03;;;;;;;;;;5065909;28;20162;-53
2020/12/05 10:01:35;;;;;;;16.23;2.97;;;;;;;;;;5063283;28;20113;-51
2020/12/05 10:04:01;;;;;;;14.18;2.53;;;;;;;;;;5052515;28;20017;-52
2020/12/05 10:06:27;;;;;;;23.13;3.53;;;;;;;;;;5054359;28;20060;-53
2020/12/05 10:08:53;;;;;;;16.27;2.28;;;;;;;;;;5056229;28;20091;-51
2020/12/05 10:11:19;;;;;;;13.45;2.58;;;;;;;;;;5062815;28;20029;-51
2020/12/05 10:13:46;;;;;;;20.08;2.00;;;;;;;;;;5059481;28;20024;-53
2020/12/05 10:16:12;;;;;;;30.95;3.42;;;;;;;;;;5053953;28;20029;-53
2020/12/05 10:18:38;;;;;;;23.98;3.03;;;;;;;;;;5059098;28;20029;-58
2020/12/05 10:21:04;;;;;;;22.00;3.25;;;;;;;;;;5060331;28;20024;-59
2020/12/05 10:23:30;;;;;;;21.92;3.72;;;;;;;;;;5064859;28;20017;-59
2020/12/05 10:25:56;;;;;;;16.98;2.33;;;;;;;;;;5063221;28;20028;-58
2020/12/05 10:28:22;;;;;;;21.77;3.47;;;;;;;;;;5059718;28;20035;-59
2020/12/05 10:30:48;;;;;;;25.35;3.38;;;;;;;;;;5060465;28;20443;-59
2020/12/05 10:33:15;;;;;;;21.83;2.95;;;;;;;;;;5058534;28;20051;-52
2020/12/05 10:35:41;;;;;;;15.52;2.50;;;;;;;;;;5059559;28;20037;-53
2020/12/05 10:38:07;;;;;;;33.05;3.03;;;;;;;;;;5063650;28;20024;-53
2020/12/05 10:40:33;;;;;;;27.08;2.65;;;;;;;;;;5061809;28;20039;-52
2020/12/05 10:42:59;;;;;;;18.58;2.70;;;;;;;;;;5061612;28;20456;-63
2020/12/05 10:45:25;;;;;;;19.08;2.90;;;;;;;;;;5061847;28;20107;-51
2020/12/05 10:47:51;;;;;;;21.83;2.72;;;;;;;;;;5062549;28;20517;-51
2020/12/05 10:50:17;;;;;;;18.95;2.88;;;;;;;;;;5064504;28;20048;-52
2020/12/05 10:52:44;;;;;;;15.65;2.25;;;;;;;;;;5059487;28;20033;-52
2020/12/05 10:55:10;;;;;;;24.42;3.08;;;;;;;;;;5054282;28;20029;-52
2020/12/05 10:57:36;;;;;;;17.92;2.42;;;;;;;;;;5059072;28;20071;-53
2020/12/05 11:00:02;;;;;;;20.90;2.58;;;;;;;;;;5058801;28;20035;-54
2020/12/05 11:02:29;;;;;;;18.95;3.55;;;;;;;;;;5057465;28;20607;-52
2020/12/05 11:04:55;;;;;;;16.83;1.85;;;;;;;;;;5057247;28;20042;-56
2020/12/05 11:07:21;;;;;;;12.52;2.53;;;;;;;;;;5057344;28;20025;-55
2020/12/05 11:09:47;;;;;;;27.73;3.70;;;;;;;;;;5065222;28;20029;-57
2020/12/05 11:12:13;;;;;;;15.75;2.00;;;;;;;;;;5064868;28;20489;-54
2020/12/05 11:14:39;;;;;;;16.90;2.25;;;;;;;;;;5069610;28;20055;-53
2020/12/05 11:17:06;;;;;;;10.15;1.88;;;;;;;;;;5068189;28;20040;-51
2020/12/05 11:19:32;;;;;;;17.83;2.05;;;;;;;;;;5062042;28;20025;-51
2020/12/05 11:21:58;;;;;;;18.55;2.00;;;;;;;;;;5058621;28;20548;-65
2020/12/05 11:24:24;;;;;;;12.48;2.53;;;;;;;;;;5062854;28;20052;-53
2020/12/05 11:26:50;;;;;;;13.00;2.15;;;;;;;;;;5070012;28;20474;-54
2020/12/05 11:29:16;;;;;;;10.95;1.98;;;;;;;;;;5072347;28;20127;-53
2020/12/05 11:31:42;;;;;;;12.93;2.10;;;;;;;;;;5070326;28;20044;-56
2020/12/05 11:34:09;;;;;;;24.15;2.15;;;;;;;;;;5069875;28;20425;-55
2020/12/05 11:36:35;;;;;;;18.05;2.75;;;;;;;;;;5068724;28;20027;-53
2020/12/05 11:39:01;;;;;;;14.95;3.25;;;;;;;;;;5068536;28;20029;-55
2020/12/05 11:41:27;;;;;;;11.27;2.65;;;;;;;;;;5055144;28;20519;-55
2020/12/05 11:43:53;;;;;;;11.93;1.75;;;;;;;;;;5057370;28;20064;-54
2020/12/05 11:46:19;;;;;;;24.52;2.53;;;;;;;;;;5063502;28;20077;-53
2020/12/05 11:48:45;;;;;;;7.00;1.15;;;;;;;;;;5065168;28;20047;-52
2020/12/05 11:51:12;;;;;;;9.88;2.20;;;;;;;;;;5054988;28;20041;-52
2020/12/05 11:53:38;;;;;;;8.85;1.85;;;;;;;;;;5069454;28;20105;-53
2020/12/05 11:56:05;;;;;;;17.92;1.65;;;;;;;;;;5056842;28;20064;-55
2020/12/05 11:58:31;;;;;;;6.47;1.23;;;;;;;;;;5057651;28;20028;-54
2020/12/05 12:00:57;;;;;;;16.58;2.25;;;;;;;;;;5063182;28;20041;-53
2020/12/05 12:03:23;;;;;;;12.32;2.80;;;;;;;;;;5068457;28;20104;-52
2020/12/05 12:05:50;;;;;;;15.20;2.00;;;;;;;;;;5069245;28;20478;-54
2020/12/05 12:08:16;;;;;;;11.10;1.70;;;;;;;;;;5070913;28;20474;-58
2020/12/05 12:10:42;;;;;;;12.40;2.08;;;;;;;;;;5069398;28;20040;-55
2020/12/05 12:13:08;;;;;;;10.43;2.22;;;;;;;;;;5068983;28;20025;-57
2020/12/05 12:15:34;;;;;;;11.50;1.80;;;;;;;;;;5068470;28;20028;-52
2020/12/05 12:18:00;;;;;;;13.70;1.90;;;;;;;;;;5068896;28;20025;-55
2020/12/05 12:20:26;;;;;;;14.23;1.45;;;;;;;;;;5071144;28;20033;-56
2020/12/05 12:22:52;;;;;;;9.25;1.75;;;;;;;;;;5069993;28;20043;-53
2020/12/05 12:25:19;;;;;;;10.25;2.28;;;;;;;;;;5067280;28;20673;-53
2020/12/05 12:27:45;;;;;;;11.43;1.95;;;;;;;;;;5068708;28;20082;-51
2020/12/05 12:30:11;;;;;;;12.82;2.17;;;;;;;;;;5068479;28;20032;-53
2020/12/05 12:32:37;;;;;;;12.98;1.73;;;;;;;;;;5069899;28;20056;-56
2020/12/05 12:35:03;;;;;;;13.25;2.78;;;;;;;;;;5072028;28;20108;-53
2020/12/05 12:37:30;;;;;;;9.30;1.58;;;;;;;;;;5068025;28;20107;-53
2020/12/05 12:39:56;;;;;;;11.02;1.83;;;;;;;;;;5068042;28;20103;-59
2020/12/05 12:42:25;;;;;;;18.80;2.17;;;;;;;;;;5068138;28;20028;-51
2020/12/05 12:44:52;;;;;;;18.25;2.45;;;;;;;;;;5064114;28;20074;-57
2020/12/05 12:50:04;;;;;;;14.77;1.77;;;;;;;;;;5070611;28;20073;-55
2020/12/05 12:52:30;;;;;;;11.88;1.80;;;;;;;;;;5067945;28;20089;-51
2020/12/05 12:54:57;;;;;;;12.45;1.75;;;;;;;;;;5067624;28;20016;-55
2020/12/05 12:57:27;;;;;;;22.45;2.42;;;;;;;;;;5067829;28;20478;-53
2020/12/05 12:59:53;;;;;;;15.80;1.83;;;;;;;;;;5067443;28;20025;-55
2020/12/05 13:02:19;;;;;;;12.73;2.00;;;;;;;;;;5070078;28;20148;-56
2020/12/05 13:04:46;;;;;;;11.10;2.08;;;;;;;;;;5070097;28;20043;-52
2020/12/05 13:07:12;;;;;;;5.65;1.02;;;;;;;;;;5067354;28;20512;-51
2020/12/05 13:09:38;;;;;;;14.75;1.42;;;;;;;;;;5067202;28;20499;-56
2020/12/05 13:12:04;;;;;;;9.65;1.25;;;;;;;;;;5067357;28;20054;-57
2020/12/05 13:14:30;;;;;;;9.57;1.10;;;;;;;;;;5069395;28;20036;-55
2020/12/05 13:16:57;;;;;;;11.60;1.90;;;;;;;;;;5070435;28;20106;-54
2020/12/05 13:19:23;;;;;;;16.88;1.55;;;;;;;;;;5068578;28;20032;-54
2020/12/05 13:21:49;;;;;;;11.23;1.58;;;;;;;;;;5067738;28;20505;-53
2020/12/05 13:24:15;;;;;;;12.60;2.88;;;;;;;;;;5068036;28;20024;-53
2020/12/05 13:26:41;;;;;;;11.52;1.80;;;;;;;;;;5067564;28;20477;-55
2020/12/05 13:29:07;;;;;;;12.68;1.73;;;;;;;;;;5071049;28;20499;-57
2020/12/05 13:31:35;;;;;;;26.20;2.20;;;;;;;;;;5067195;28;20036;-54
2020/12/05 13:34:02;;;;;;;12.73;1.75;;;;;;;;;;5066998;28;20028;-54
2020/12/05 13:36:28;;;;;;;18.05;2.45;;;;;;;;;;5067114;28;20115;-52
2020/12/05 13:38:55;;;;;;;15.73;2.22;;;;;;;;;;5067140;28;20053;-53
2020/12/05 13:41:23;;;;;;;12.20;2.55;;;;;;;;;;5069226;28;20531;-55
2020/12/05 13:43:49;;;;;;;16.05;3.08;;;;;;;;;;5068467;28;20493;-51
2020/12/05 13:46:15;;;;;;;15.63;2.67;;;;;;;;;;5066894;28;20029;-56
2020/12/05 13:48:41;;;;;;;8.32;2.10;;;;;;;;;;5067389;28;20024;-56
2020/12/05 13:51:08;;;;;;;8.38;1.35;;;;;;;;;;5066611;28;20036;-55
2020/12/05 13:53:34;;;;;;;14.00;2.88;;;;;;;;;;5068119;28;20143;-54
2020/12/05 13:56:00;;;;;;;14.88;2.75;;;;;;;;;;5068951;28;20066;-52
2020/12/05 13:58:26;;;;;;;20.17;1.92;;;;;;;;;;5066077;28;20117;-53
2020/12/05 14:00:53;;;;;;;15.00;2.35;;;;;;;;;;5065788;28;20048;-56
2020/12/05 14:03:19;;;;;;;18.08;2.63;;;;;;;;;;5066173;28;20154;-51
2020/12/05 14:05:45;;;;;;;23.50;2.53;;;;;;;;;;5065134;28;20032;-57
2020/12/05 14:08:11;;;;;;;15.95;2.35;;;;;;;;;;5069943;28;20017;-55
2020/12/05 14:10:37;;;;;;;13.65;2.33;;;;;;;;;;5066205;28;20029;-53
2020/12/05 14:13:03;;;;;;;14.85;2.95;;;;;;;;;;5068256;28;20389;-52
2020/12/05 14:15:29;;;;;;;17.02;2.45;;;;;;;;;;5070153;28;20021;-56
2020/12/05 14:17:56;;;;;;;17.70;2.53;;;;;;;;;;5063605;28;20095;-54
2020/12/05 14:20:22;;;;;;;18.95;2.90;;;;;;;;;;5079571;28;20033;-56
2020/12/05 14:22:49;;;;;;;12.63;2.30;;;;;;;;;;5070766;28;20036;-56
2020/12/05 14:25:16;;;;;;;17.15;3.55;;;;;;;;;;5069627;28;20021;-58
2020/12/05 14:27:45;;;;;;;11.02;2.08;;;;;;;;;;5070068;28;20111;-53
2020/12/05 14:30:12;;;;;;;18.60;3.47;;;;;;;;;;5070150;28;20032;-55
2020/12/05 14:32:38;;;;;;;13.77;2.25;;;;;;;;;;5071375;28;20064;-54
2020/12/05 14:35:04;;;;;;;9.98;1.80;;;;;;;;;;5071728;28;20086;-57
2020/12/05 14:37:30;;;;;;;19.92;2.47;;;;;;;;;;5071292;28;20107;-56
2020/12/05 14:39:56;;;;;;;12.77;2.58;;;;;;;;;;5067970;28;20021;-55
2020/12/05 14:42:22;;;;;;;18.20;2.65;;;;;;;;;;5065586;28;20036;-55
2020/12/05 14:44:48;;;;;;;11.48;2.10;;;;;;;;;;5069122;28;20037;-55
2020/12/05 14:47:15;;;;;;;8.85;1.67;;;;;;;;;;5072935;28;20017;-55
2020/12/05 14:49:41;;;;;;;14.65;3.15;;;;;;;;;;5069754;28;20554;-56
2020/12/05 14:52:08;;;;;;;15.77;3.50;;;;;;;;;;5069230;28;20081;-57
2020/12/05 14:54:34;;;;;;;15.73;3.08;;;;;;;;;;5067749;28;20474;-56
2020/12/05 14:57:00;;;;;;;12.85;2.00;;;;;;;;;;5089819;28;20039;-55
2020/12/05 14:59:27;;;;;;;9.18;1.50;;;;;;;;;;5060070;28;20077;-55
2020/12/05 15:01:53;;;;;;;8.73;1.45;;;;;;;;;;5059502;28;20045;-58
2020/12/05 15:04:19;;;;;;;9.60;1.33;;;;;;;;;;5069405;28;20028;-62
2020/12/05 15:06:45;;;;;;;15.98;1.90;;;;;;;;;;5068558;28;20401;-57
2020/12/05 15:09:12;;;;;;;8.07;1.40;;;;;;;;;;5058031;28;20061;-53
2020/12/05 15:11:38;;;;;;;9.52;1.33;;;;;;;;;;5061727;28;20047;-55
2020/12/05 15:14:04;;;;;;;16.25;2.00;;;;;;;;;;5060877;28;20059;-55
2020/12/05 15:16:30;;;;;;;14.55;1.77;;;;;;;;;;5068743;28;20158;-55
2020/12/05 15:18:56;;;;;;;10.73;2.22;;;;;;;;;;5054552;28;20444;-56
2020/12/05 15:21:23;;;;;;;9.70;1.67;;;;;;;;;;5067699;28;20039;-56
2020/12/05 15:23:49;;;;;;;10.52;2.33;;;;;;;;;;5058975;28;20024;-52
2020/12/05 15:26:15;;;;;;;9.63;1.77;;;;;;;;;;5057935;28;20012;-52
2020/12/05 15:28:41;;;;;;;12.57;2.17;;;;;;;;;;5066519;28;20020;-58
2020/12/05 15:31:07;;;;;;;13.55;1.83;;;;;;;;;;5053581;28;20079;-54
2020/12/05 15:33:34;;;;;;;13.23;2.30;;;;;;;;;;5067185;28;20032;-55
2020/12/05 15:36:03;;;;;;;15.07;1.63;;;;;;;;;;5068425;28;20432;-53
2020/12/05 15:38:33;;;;;;;9.90;1.55;;;;;;;;;;5078354;28;20043;-54
2020/12/05 15:41:01;;;;;;;17.42;2.33;;;;;;;;;;5063751;28;20377;-56
2020/12/05 15:43:27;;;;;;;11.15;2.58;;;;;;;;;;5075679;28;20032;-57
2020/12/05 15:45:53;;;;;;;15.05;2.20;;;;;;;;;;5076890;28;20412;-55
2020/12/05 15:48:20;;;;;;;7.65;1.88;;;;;;;;;;5078934;28;20377;-56
2020/12/05 15:50:46;;;;;;;9.77;2.58;;;;;;;;;;5074726;28;20462;-56
2020/12/05 15:53:12;;;;;;;14.63;2.55;;;;;;;;;;5075522;28;20032;-55
2020/12/05 15:55:38;;;;;;;13.73;2.17;;;;;;;;;;5081642;28;20055;-55
2020/12/05 15:58:04;;;;;;;14.05;1.65;;;;;;;;;;5053793;28;20041;-54
2020/12/05 16:00:31;;;;;;;12.48;2.17;;;;;;;;;;5066557;28;20493;-55
2020/12/05 16:02:58;;;;;;;15.27;3.15;;;;;;;;;;5060287;28;20516;-55
2020/12/05 16:05:24;;;;;;;14.50;1.83;;;;;;;;;;5060089;28;20031;-56
2020/12/05 16:07:54;;;;;;;7.18;1.58;;;;;;;;;;5061689;28;20032;-56
2020/12/05 16:10:21;;;;;;;13.13;2.15;;;;;;;;;;5054242;28;21055;-55
2020/12/05 16:12:47;;;;;;;23.95;4.43;;;;;;;;;;5054529;28;20482;-54
2020/12/05 16:15:14;;;;;;;10.93;2.03;;;;;;;;;;5055736;28;20021;-55
2020/12/05 16:17:40;;;;;;;10.45;2.55;;;;;;;;;;5054960;28;20048;-53
2020/12/05 16:20:07;;;;;;;7.90;2.15;;;;;;;;;;5056481;28;20064;-56
2020/12/05 16:22:35;;;;;;;8.25;1.83;;;;;;;;;;5046952;28;20516;-55
2020/12/05 16:25:02;;;;;;;7.45;1.20;;;;;;;;;;5054230;28;20108;-54
2020/12/05 16:27:28;;;;;;;7.95;1.10;;;;;;;;;;5057008;28;20033;-54
2020/12/05 16:29:54;;;;;;;6.32;0.95;;;;;;;;;;5054587;28;20398;-54
2020/12/05 16:32:20;;;;;;;5.15;0.77;;;;;;;;;;5055909;28;20418;-57
2020/12/05 16:34:46;;;;;;;10.20;2.40;;;;;;;;;;5053817;28;20025;-58
2020/12/05 16:37:12;;;;;;;7.63;0.93;;;;;;;;;;5057924;28;20547;-52
2020/12/05 16:39:38;;;;;;;7.38;1.10;;;;;;;;;;5058942;28;20048;-55
2020/12/05 16:42:05;;;;;;;8.05;1.05;;;;;;;;;;5058863;28;20044;-59
2020/12/05 16:44:31;;;;;;;13.45;1.48;;;;;;;;;;5054709;28;20025;-54
2020/12/05 16:46:57;;;;;;;16.20;2.92;;;;;;;;;;5060149;28;20024;-53
2020/12/05 16:49:23;;;;;;;6.55;1.63;;;;;;;;;;5062526;28;20051;-54
2020/12/05 16:51:50;;;;;;;17.75;8.25;;;;;;;;;;5063547;28;20037;-55
2020/12/05 16:54:17;;;;;;;9.40;2.30;;;;;;;;;;5062499;28;20025;-59
2020/12/05 16:56:43;;;;;;;9.68;1.75;;;;;;;;;;5062391;28;20036;-54
2020/12/05 16:59:09;;;;;;;2.92;1.35;;;;;;;;;;5062098;28;20039;-57
2020/12/05 17:01:36;;;;;;;11.35;1.67;;;;;;;;;;5057349;28;20053;-56
2020/12/05 17:04:02;;;;;;;5.25;1.60;;;;;;;;;;5049645;28;20035;-58
2020/12/05 17:06:31;;;;;;;7.50;2.80;;;;;;;;;;5054707;28;20033;-54
2020/12/05 17:08:58;;;;;;;9.55;2.13;;;;;;;;;;5054676;28;20527;-54
2020/12/05 17:11:25;;;;;;;11.85;1.45;;;;;;;;;;5063653;28;20043;-60
2020/12/05 17:13:51;;;;;;;9.02;1.58;;;;;;;;;;5062084;28;20078;-51
2020/12/05 17:16:27;;;;;;;7.43;1.63;;;;;;;;;;5069865;28;20044;-54
2020/12/05 17:18:53;;;;;;;19.77;2.50;;;;;;;;;;5066371;28;20025;-59
2020/12/05 17:21:23;;;;;;;14.23;2.80;;;;;;;;;;5068797;28;20493;-52
2020/12/05 17:23:50;;;;;;;5.88;1.05;;;;;;;;;;5064658;28;20024;-57
2020/12/05 17:26:16;;;;;;;14.10;4.22;;;;;;;;;;5064307;28;20025;-55
2020/12/05 17:28:43;;;;;;;26.95;8.65;;;;;;;;;;5068119;28;20044;-60
2020/12/05 17:31:09;;;;;;;16.60;3.90;;;;;;;;;;5066580;28;20039;-54
2020/12/05 17:33:36;;;;;;;15.20;2.05;;;;;;;;;;5067859;28;20024;-55
2020/12/05 17:36:02;;;;;;;10.45;2.72;;;;;;;;;;5067912;28;20033;-52
2020/12/05 17:38:28;;;;;;;5.97;1.25;;;;;;;;;;5066609;28;20025;-53
2020/12/05 17:40:55;;;;;;;8.90;2.20;;;;;;;;;;5066511;28;20016;-53
2020/12/05 17:43:21;;;;;;;9.88;2.88;;;;;;;;;;5066716;28;20029;-57
2020/12/05 17:45:47;;;;;;;8.20;1.10;;;;;;;;;;5076457;28;20032;-53
2020/12/05 17:48:13;;;;;;;5.57;2.30;;;;;;;;;;5061631;28;20170;-53
2020/12/05 17:50:39;;;;;;;12.98;3.33;;;;;;;;;;5058331;28;20029;-58
2020/12/05 17:53:06;;;;;;;15.30;2.05;;;;;;;;;;5076711;28;20024;-55
2020/12/05 17:55:32;;;;;;;11.52;2.58;;;;;;;;;;5052245;28;20508;-55
2020/12/05 17:57:58;;;;;;;8.30;2.03;;;;;;;;;;5066056;28;20031;-55
2020/12/05 18:00:26;;;;;;;13.27;4.63;;;;;;;;;;5066864;28;20028;-54
2020/12/05 18:02:54;;;;;;;11.85;3.78;;;;;;;;;;5057788;28;20109;-55
2020/12/05 18:05:20;;;;;;;7.50;2.42;;;;;;;;;;5055344;28;20571;-58
2020/12/05 18:07:46;;;;;;;10.57;2.10;;;;;;;;;;5065351;28;20069;-55
2020/12/05 18:10:12;;;;;;;11.70;2.70;;;;;;;;;;5050863;28;20093;-59
2020/12/05 18:12:39;;;;;;;14.27;4.47;;;;;;;;;;5054927;28;20032;-57
2020/12/05 18:15:05;;;;;;;9.95;2.78;;;;;;;;;;5054829;28;20037;-55
2020/12/05 18:17:31;;;;;;;15.65;1.48;;;;;;;;;;5057187;28;20496;-53
2020/12/05 18:19:58;;;;;;;7.50;1.00;;;;;;;;;;5064741;28;20117;-55
2020/12/05 18:22:25;;;;;;;8.00;1.08;;;;;;;;;;5077478;28;20021;-54
2020/12/05 18:24:52;;;;;;;9.40;2.15;;;;;;;;;;5053180;28;20060;-55
2020/12/05 18:27:18;;;;;;;19.45;3.83;;;;;;;;;;5064429;28;20033;-58
2020/12/05 18:29:44;;;;;;;20.10;3.92;;;;;;;;;;5062819;28;20108;-55
2020/12/05 18:32:10;;;;;;;16.00;3.75;;;;;;;;;;5062776;28;20502;-60
2020/12/05 18:34:37;;;;;;;17.52;2.72;;;;;;;;;;5056055;28;20413;-55
2020/12/05 18:37:03;;;;;;;19.40;4.15;;;;;;;;;;5051546;28;20051;-52
2020/12/05 18:39:29;;;;;;;23.77;3.97;;;;;;;;;;5054242;28;20025;-52
2020/12/05 18:41:55;;;;;;;13.82;3.75;;;;;;;;;;5059676;28;20485;-54
2020/12/05 18:44:21;;;;;;;14.93;1.77;;;;;;;;;;5061695;28;20020;-57
2020/12/05 18:46:47;;;;;;;10.10;1.80;;;;;;;;;;5066333;28;20183;-56
2020/12/05 18:49:17;;;;;;;16.20;2.25;;;;;;;;;;5050806;28;20530;-53
2020/12/05 18:51:43;;;;;;;11.93;1.70;;;;;;;;;;5064892;28;20040;-52
2020/12/05 18:54:09;;;;;;;7.22;1.65;;;;;;;;;;5054292;28;20028;-55
2020/12/05 18:56:35;;;;;;;21.60;2.33;;;;;;;;;;5054148;28;20405;-56
2020/12/05 18:59:01;;;;;;;14.93;2.65;;;;;;;;;;5055935;28;20470;-55
2020/12/05 19:01:28;;;;;;;9.00;1.73;;;;;;;;;;5069539;28;20055;-60
2020/12/05 19:03:55;;;;;;;10.90;2.55;;;;;;;;;;5056231;28;20049;-52
2020/12/05 19:06:22;;;;;;;10.43;1.70;;;;;;;;;;5070328;28;20111;-56
2020/12/05 19:08:48;;;;;;;10.23;1.90;;;;;;;;;;5061612;28;20159;-55
2020/12/05 19:11:14;;;;;;;23.27;3.30;;;;;;;;;;5061493;28;20476;-55
2020/12/05 19:13:41;;;;;;;18.52;3.38;;;;;;;;;;5067301;28;20428;-54
2020/12/05 19:16:07;;;;;;;10.00;1.40;;;;;;;;;;5066908;28;20055;-58
2020/12/05 19:18:33;;;;;;;6.35;1.63;;;;;;;;;;5069999;28;20032;-55
2020/12/05 19:20:59;;;;;;;8.48;2.22;;;;;;;;;;5067693;28;20064;-54
2020/12/05 19:23:25;;;;;;;13.73;1.73;;;;;;;;;;5067398;28;20425;-55
2020/12/05 19:25:51;;;;;;;5.50;1.83;;;;;;;;;;5067163;28;20020;-54
2020/12/05 19:28:17;;;;;;;9.82;1.08;;;;;;;;;;5067954;28;20486;-58
2020/12/05 19:30:43;;;;;;;10.75;2.38;;;;;;;;;;5059633;28;20035;-60
2020/12/05 19:33:10;;;;;;;9.02;1.23;;;;;;;;;;5064315;28;20090;-54
2020/12/05 19:35:36;;;;;;;5.63;1.40;;;;;;;;;;5064972;28;20090;-57
2020/12/05 19:38:02;;;;;;;11.82;2.22;;;;;;;;;;5058707;28;20040;-56
2020/12/05 19:40:28;;;;;;;14.45;1.13;;;;;;;;;;5065786;28;20453;-54
2020/12/05 19:42:54;;;;;;;5.95;1.00;;;;;;;;;;5060416;28;20078;-55
2020/12/05 19:45:21;;;;;;;6.97;0.90;;;;;;;;;;5062206;28;20451;-57
2020/12/05 19:47:47;;;;;;;4.60;1.13;;;;;;;;;;5060315;28;20037;-55
2020/12/05 19:50:17;;;;;;;5.70;1.05;;;;;;;;;;5052633;28;20541;-54
2020/12/05 19:52:44;;;;;;;7.57;2.00;;;;;;;;;;5054830;28;20048;-62
2020/12/05 19:55:10;;;;;;;9.45;2.60;;;;;;;;;;5062223;28;20025;-55
2020/12/05 19:57:36;;;;;;;8.57;2.47;;;;;;;;;;5058173;28;20036;-58
2020/12/05 20:00:06;;;;;;;24.33;2.20;;;;;;;;;;5062282;28;20028;-54
2020/12/05 20:02:33;;;;;;;16.67;1.58;;;;;;;;;;5059394;28;20049;-53
2020/12/05 20:04:59;;;;;;;16.48;2.00;;;;;;;;;;5063517;28;20493;-54
2020/12/05 20:07:26;;;;;;;11.75;2.05;;;;;;;;;;5059948;28;20109;-54
2020/12/05 20:09:58;;;;;;;11.75;1.90;;;;;;;;;;5062619;28;20063;-57
2020/12/05 20:12:25;;;;;;;19.58;3.08;;;;;;;;;;5064018;28;20040;-51
2020/12/05 20:14:51;;;;;;;15.05;1.42;;;;;;;;;;5060475;28;20042;-57
2020/12/05 20:17:17;;;;;;;13.23;1.15;;;;;;;;;;5060835;28;20053;-52
2020/12/05 20:19:44;;;;;;;16.92;2.35;;;;;;;;;;5061171;28;20021;-54
2020/12/05 20:22:10;;;;;;;24.27;3.17;;;;;;;;;;5065836;28;20032;-58
2020/12/05 20:24:37;;;;;;;21.83;3.08;;;;;;;;;;5064682;28;20021;-53
2020/12/05 20:27:04;;;;;;;13.98;1.85;;;;;;;;;;5061428;28;20414;-54
2020/12/05 20:29:30;;;;;;;11.68;1.60;;;;;;;;;;5061917;28;20024;-52
2020/12/05 20:31:56;;;;;;;16.83;1.65;;;;;;;;;;5063380;28;20048;-56
2020/12/05 20:34:22;;;;;;;10.27;2.35;;;;;;;;;;5059394;28;20071;-53
2020/12/05 20:36:49;;;;;;;6.95;1.33;;;;;;;;;;5065074;28;20228;-52